createdAt,value
2018-07-12T00:02:13.268Z,77.60
2018-07-12T00:04:40.886Z,77.90
2018-07-12T00:07:08.611Z,77.90
2018-07-12T00:09:36.301Z,77.60
2018-07-12T00:14:31.775Z,77.80
2018-07-12T00:16:59.437Z,77.80
2018-07-12T00:19:27.079Z,77.90
2018-07-12T00:21:54.719Z,78.00
2018-07-12T00:29:18.084Z,78.20
2018-07-12T00:31:45.755Z,78.30
2018-07-12T00:34:13.413Z,78.60
2018-07-12T00:36:41.064Z,78.80
2018-07-12T00:39:08.735Z,78.60
2018-07-12T00:41:36.383Z,78.60
2018-07-12T00:44:04.062Z,78.50
2018-07-12T00:46:31.699Z,78.50
2018-07-12T00:48:59.404Z,78.50
2018-07-12T00:51:27.049Z,78.50
2018-07-12T00:53:54.713Z,78.80
2018-07-12T00:56:22.377Z,79.20
2018-07-12T00:58:50.019Z,79.90
2018-07-12T01:01:17.701Z,80.10
2018-07-12T01:03:45.371Z,80.00
2018-07-12T01:06:13.021Z,80.30
2018-07-12T01:08:40.687Z,80.00
2018-07-12T01:11:08.379Z,80.00
2018-07-12T01:16:03.911Z,80.70
2018-07-12T01:23:27.237Z,80.60
2018-07-12T01:25:54.923Z,80.70
2018-07-12T01:28:22.577Z,80.70
2018-07-12T01:30:50.263Z,80.90
2018-07-12T01:33:17.923Z,80.90
2018-07-12T01:35:45.587Z,81.70
2018-07-12T01:38:13.278Z,81.60
2018-07-12T01:43:09.020Z,81.90
2018-07-12T01:48:04.566Z,81.70
2018-07-12T01:50:32.232Z,82.00
2018-07-12T01:52:59.907Z,82.00
2018-07-12T01:55:27.556Z,82.30
2018-07-12T01:57:55.229Z,82.30
2018-07-12T02:00:22.874Z,82.80
2018-07-12T02:02:50.721Z,82.80
2018-07-12T02:07:46.449Z,82.40
2018-07-12T02:10:14.111Z,82.30
2018-07-12T02:12:41.785Z,82.30
2018-07-12T02:15:09.433Z,82.70
2018-07-12T02:17:37.083Z,81.90
2018-07-12T02:20:04.735Z,81.80
2018-07-12T02:22:32.397Z,81.70
2018-07-12T02:25:00.071Z,81.50
2018-07-12T02:27:27.959Z,81.50
2018-07-12T02:30:02.268Z,81.60
2018-07-12T02:32:30.054Z,81.30
2018-07-12T02:37:25.601Z,82.20
2018-07-12T02:39:53.274Z,82.40
2018-07-12T02:42:21.009Z,82.50
2018-07-12T02:47:16.749Z,82.50
2018-07-12T02:54:40.525Z,82.60
2018-07-12T02:57:08.216Z,82.30
2018-07-12T03:02:03.950Z,82.60
2018-07-12T03:06:59.451Z,82.90
2018-07-12T03:09:27.092Z,82.70
2018-07-12T03:11:54.775Z,82.60
2018-07-12T03:14:22.460Z,82.70
2018-07-12T03:19:17.903Z,82.80
2018-07-12T03:21:45.605Z,82.70
2018-07-12T03:24:13.239Z,83.00
2018-07-12T03:26:40.888Z,82.90
2018-07-12T03:29:08.564Z,83.10
2018-07-12T03:31:36.199Z,83.20
2018-07-12T03:36:31.704Z,83.80
2018-07-12T03:38:59.355Z,83.80
2018-07-12T03:41:27.023Z,83.60
2018-07-12T03:43:54.722Z,83.20
2018-07-12T03:46:22.368Z,83.60
2018-07-12T03:48:50.042Z,83.00
2018-07-12T03:53:45.547Z,82.60
2018-07-12T03:56:13.206Z,82.80
2018-07-12T03:58:40.858Z,82.90
2018-07-12T04:01:08.532Z,83.00
2018-07-12T04:03:36.202Z,83.70
2018-07-12T04:06:03.844Z,84.00
2018-07-12T04:08:31.521Z,84.20
2018-07-12T04:10:59.219Z,84.40
2018-07-12T04:13:26.860Z,84.20
2018-07-12T04:15:54.512Z,85.20
2018-07-12T04:18:22.179Z,84.30
2018-07-12T04:20:49.838Z,84.20
2018-07-12T04:23:17.523Z,84.40
2018-07-12T04:25:45.249Z,84.10
2018-07-12T04:28:13.009Z,84.00
2018-07-12T04:30:40.611Z,84.60
2018-07-12T04:33:08.278Z,84.50
2018-07-12T04:38:03.735Z,85.20
2018-07-12T04:40:31.409Z,85.10
2018-07-12T04:42:59.080Z,85.50
2018-07-12T04:45:26.728Z,85.20
2018-07-12T04:47:54.423Z,85.30
2018-07-12T04:50:22.071Z,85.50
2018-07-12T04:52:49.720Z,85.40
2018-07-12T04:55:17.392Z,85.30
2018-07-12T04:57:45.110Z,85.70
2018-07-12T05:05:08.477Z,86.40
2018-07-12T05:07:36.114Z,86.70
2018-07-12T05:10:03.939Z,86.90
2018-07-12T05:12:31.618Z,87.00
2018-07-12T05:14:59.319Z,87.30
2018-07-12T05:17:26.969Z,87.80
2018-07-12T05:19:54.631Z,88.40
2018-07-12T05:22:22.285Z,88.80
2018-07-12T05:24:49.943Z,89.00
2018-07-12T05:27:17.595Z,89.20
2018-07-12T05:29:45.285Z,89.70
2018-07-12T05:32:12.943Z,89.70
2018-07-12T05:34:40.608Z,89.60
2018-07-12T05:37:09.205Z,89.40
2018-07-12T05:39:37.664Z,89.40
2018-07-12T05:42:06.236Z,89.50
2018-07-12T05:44:34.755Z,89.40
2018-07-12T05:47:03.270Z,89.60
2018-07-12T05:49:31.992Z,89.50
2018-07-12T05:52:00.781Z,89.30
2018-07-12T05:54:29.573Z,89.50
2018-07-12T05:56:58.327Z,89.30
2018-07-12T05:59:27.096Z,89.30
2018-07-12T06:02:07.620Z,89.20
2018-07-12T06:04:36.339Z,89.40
2018-07-12T06:07:05.100Z,89.50
2018-07-12T06:09:33.893Z,89.80
2018-07-12T06:12:02.681Z,89.90
2018-07-12T06:14:31.504Z,89.80
2018-07-12T06:17:00.260Z,88.90
2018-07-12T06:19:28.995Z,90.10
2018-07-12T06:21:57.807Z,89.60
2018-07-12T06:24:26.553Z,89.30
2018-07-12T06:26:55.467Z,88.80
2018-07-12T06:29:24.237Z,88.30
2018-07-12T06:31:52.980Z,88.10
2018-07-12T06:34:21.744Z,88.00
2018-07-12T06:36:50.491Z,87.50
2018-07-12T06:39:19.300Z,87.70
2018-07-12T06:41:48.038Z,87.20
2018-07-12T06:44:16.817Z,86.70
2018-07-12T06:46:45.595Z,87.00
2018-07-12T06:49:14.388Z,87.30
2018-07-12T06:51:43.161Z,87.20
2018-07-12T06:54:11.951Z,87.30
2018-07-12T06:56:40.716Z,86.90
2018-07-12T06:59:09.483Z,86.70
2018-07-12T07:09:05.302Z,86.80
2018-07-12T07:11:34.026Z,86.80
2018-07-12T07:14:02.859Z,87.30
2018-07-12T07:16:31.613Z,87.10
2018-07-12T07:26:25.912Z,86.60
2018-07-12T07:28:54.763Z,86.50
2018-07-12T07:31:23.477Z,86.50
2018-07-12T07:33:52.221Z,86.70
2018-07-12T07:36:20.968Z,86.90
2018-07-12T07:38:49.716Z,86.70
2018-07-12T07:41:18.426Z,87.10
2018-07-12T07:43:47.182Z,87.40
2018-07-12T07:46:15.960Z,87.90
2018-07-12T07:51:13.196Z,88.40
2018-07-12T07:53:41.946Z,88.70
2018-07-12T07:56:10.740Z,89.20
2018-07-12T07:58:39.464Z,89.30
2018-07-12T08:01:08.194Z,89.50
2018-07-12T08:03:36.995Z,89.50
2018-07-12T08:06:06.175Z,89.90
2018-07-12T08:08:34.936Z,90.00
2018-07-12T08:11:03.688Z,90.00
2018-07-12T08:13:32.443Z,90.00
2018-07-12T08:16:01.188Z,90.10
2018-07-12T08:18:29.948Z,90.10
2018-07-12T08:20:58.691Z,90.00
2018-07-12T08:25:55.909Z,89.80
2018-07-12T08:28:31.520Z,90.40
2018-07-12T08:31:00.256Z,90.10
2018-07-12T08:33:29.096Z,89.80
2018-07-12T08:35:57.811Z,89.30
2018-07-12T08:38:26.595Z,89.20
2018-07-12T08:40:55.335Z,89.00
2018-07-12T08:43:24.083Z,88.40
2018-07-12T08:45:52.824Z,88.30
2018-07-12T08:50:50.040Z,88.20
2018-07-12T08:53:18.780Z,88.20
2018-07-12T08:55:47.537Z,88.30
2018-07-12T08:58:16.282Z,88.50
2018-07-12T09:00:45.075Z,88.30
2018-07-12T09:03:13.844Z,88.50
2018-07-12T09:05:42.566Z,88.60
2018-07-12T09:08:11.330Z,88.50
2018-07-12T09:10:40.078Z,88.20
2018-07-12T09:13:08.831Z,88.40
2018-07-12T09:15:37.601Z,88.50
2018-07-12T09:18:06.359Z,88.00
2018-07-12T09:20:35.124Z,88.30
2018-07-12T09:23:03.859Z,88.10
2018-07-12T09:25:32.726Z,87.80
2018-07-12T09:28:01.428Z,87.00
2018-07-12T09:30:30.187Z,86.00
2018-07-12T09:32:58.932Z,85.50
2018-07-12T09:35:27.691Z,85.80
2018-07-12T09:40:24.918Z,85.70
2018-07-12T09:42:53.687Z,85.30
2018-07-12T09:45:22.486Z,85.30
2018-07-12T09:50:19.631Z,85.70
2018-07-12T09:52:48.355Z,85.80
2018-07-12T09:55:17.197Z,85.10
2018-07-12T09:57:57.600Z,85.50
2018-07-12T10:00:31.905Z,85.40
2018-07-12T10:03:06.218Z,85.60
2018-07-12T10:05:40.406Z,84.90
2018-07-12T10:08:14.630Z,85.20
2018-07-12T10:10:48.788Z,85.40
2018-07-12T10:13:23.152Z,85.50
2018-07-12T10:15:57.367Z,85.00
2018-07-12T10:18:28.426Z,85.90
2018-07-12T10:20:57.279Z,85.40
2018-07-12T10:23:26.070Z,85.30
2018-07-12T10:25:55.091Z,85.50
2018-07-12T10:28:23.814Z,84.90
2018-07-12T10:30:52.569Z,84.50
2018-07-12T10:33:21.302Z,84.60
2018-07-12T10:35:50.055Z,84.70
2018-07-12T10:38:19.139Z,84.10
2018-07-12T10:40:48.069Z,83.90
2018-07-12T10:43:16.984Z,83.80
2018-07-12T10:45:45.718Z,83.50
2018-07-12T10:48:14.465Z,83.40
2018-07-12T10:50:43.184Z,83.20
2018-07-12T10:53:11.924Z,82.80
2018-07-12T10:55:40.658Z,82.80
2018-07-12T10:58:09.382Z,83.00
2018-07-12T11:00:38.122Z,81.80
2018-07-12T11:05:35.401Z,82.30
2018-07-12T11:08:04.142Z,83.00
2018-07-12T11:10:32.957Z,82.00
2018-07-12T11:13:10.045Z,82.00
2018-07-12T11:18:07.294Z,81.90
2018-07-12T11:20:36.063Z,81.70
2018-07-12T11:23:05.007Z,81.70
2018-07-12T11:28:02.654Z,81.30
2018-07-12T11:30:31.376Z,80.40
2018-07-12T11:33:00.103Z,80.60
2018-07-12T11:35:28.854Z,80.90
2018-07-12T11:40:26.075Z,81.10
2018-07-12T11:42:54.879Z,81.40
2018-07-12T11:45:23.791Z,81.60
2018-07-12T11:50:21.107Z,81.80
2018-07-12T11:52:49.907Z,81.90
2018-07-12T11:55:18.571Z,81.00
2018-07-12T11:57:47.309Z,81.30
2018-07-12T12:00:16.044Z,81.60
2018-07-12T12:02:44.827Z,80.70
2018-07-12T12:05:13.556Z,81.10
2018-07-12T12:07:42.296Z,81.10
2018-07-12T12:10:11.067Z,81.60
2018-07-12T12:17:36.740Z,82.80
2018-07-12T12:20:05.508Z,82.00
2018-07-12T12:25:02.729Z,82.20
2018-07-12T12:27:31.556Z,82.30
2018-07-12T12:30:00.235Z,82.60
2018-07-12T12:32:28.973Z,83.20
2018-07-12T12:34:57.762Z,82.90
2018-07-12T12:37:26.492Z,82.20
2018-07-12T12:39:55.359Z,81.70
2018-07-12T12:42:24.094Z,82.00
2018-07-12T12:47:21.336Z,82.70
2018-07-12T12:49:50.112Z,82.10
2018-07-12T12:52:18.870Z,81.80
2018-07-12T12:54:47.964Z,82.80
2018-07-12T12:57:17.340Z,82.20
2018-07-12T12:59:46.614Z,81.70
2018-07-12T13:02:15.783Z,81.40
2018-07-12T13:04:44.519Z,82.00
2018-07-12T13:17:07.233Z,80.50
2018-07-12T13:19:36.085Z,79.70
2018-07-12T13:22:04.939Z,79.30
2018-07-12T13:24:33.711Z,78.50
2018-07-12T13:29:30.982Z,79.10
2018-07-12T13:34:28.363Z,79.00
2018-07-12T13:36:57.100Z,79.70
2018-07-12T13:39:25.888Z,80.70
2018-07-12T13:41:54.622Z,81.60
2018-07-12T13:44:24.562Z,82.00
2018-07-12T13:46:54.271Z,82.50
2018-07-12T13:49:23.000Z,82.50
2018-07-12T13:51:52.986Z,82.60
2018-07-12T13:54:21.763Z,83.10
2018-07-12T13:56:50.751Z,83.50
2018-07-12T13:59:19.523Z,83.10
2018-07-12T14:01:48.307Z,83.50
2018-07-12T14:06:45.556Z,83.80
2018-07-12T14:09:14.345Z,83.90
2018-07-12T14:11:43.112Z,83.70
2018-07-12T14:14:11.949Z,83.90
2018-07-12T14:19:09.248Z,83.70
2018-07-12T14:21:38.067Z,83.40
2018-07-12T14:24:06.851Z,83.70
2018-07-12T14:26:35.566Z,83.10
2018-07-12T14:29:04.306Z,83.80
2018-07-12T14:31:33.094Z,83.10
2018-07-12T14:34:01.853Z,82.40
2018-07-12T14:38:59.051Z,81.10
2018-07-12T14:41:27.783Z,80.70
2018-07-12T14:43:56.575Z,80.30
2018-07-12T14:46:25.299Z,80.10
2018-07-12T14:48:54.045Z,79.60
2018-07-12T14:51:22.795Z,79.50
2018-07-12T14:53:51.546Z,79.50
2018-07-12T14:58:48.732Z,79.30
2018-07-12T15:01:17.542Z,79.20
2018-07-12T15:03:46.288Z,79.90
2018-07-12T15:06:15.128Z,79.90
2018-07-12T15:08:43.869Z,79.60
2018-07-12T15:13:41.185Z,79.20
2018-07-12T15:16:09.971Z,79.60
2018-07-12T15:18:38.748Z,79.30
2018-07-12T15:21:07.615Z,79.20
2018-07-12T15:23:36.424Z,79.30
2018-07-12T15:26:05.196Z,79.30
2018-07-12T15:28:34.029Z,78.80
2018-07-12T15:31:02.811Z,78.80
2018-07-12T15:33:31.655Z,79.60
2018-07-12T15:38:28.879Z,79.10
2018-07-12T15:40:57.663Z,79.00
2018-07-12T15:43:26.420Z,78.80
2018-07-12T15:45:55.172Z,79.00
2018-07-12T15:48:23.946Z,79.50
2018-07-12T15:50:52.733Z,79.80
2018-07-12T15:53:21.505Z,79.70
2018-07-12T15:55:50.227Z,80.10
2018-07-12T15:58:19.014Z,80.20
2018-07-12T16:00:47.781Z,80.00
2018-07-12T16:03:16.548Z,80.50
2018-07-12T16:05:45.316Z,80.60
2018-07-12T16:08:14.067Z,80.70
2018-07-12T16:10:42.808Z,79.70
2018-07-12T16:13:11.542Z,80.30
2018-07-12T16:15:40.271Z,80.60
2018-07-12T16:18:09.032Z,80.30
2018-07-12T16:23:06.252Z,80.00
2018-07-12T16:25:35.012Z,80.30
2018-07-12T16:28:03.750Z,80.20
2018-07-12T16:30:32.476Z,80.20
2018-07-12T16:33:01.258Z,80.20
2018-07-12T16:37:58.505Z,80.20
2018-07-12T16:40:27.256Z,80.20
2018-07-12T16:42:56.072Z,80.10
2018-07-12T16:45:24.830Z,80.40
2018-07-12T16:47:53.564Z,80.20
2018-07-12T16:50:22.296Z,80.00
2018-07-12T16:52:51.022Z,80.20
2018-07-12T16:55:19.843Z,80.20
2018-07-12T17:00:18.979Z,80.20
2018-07-12T17:02:48.493Z,81.10
2018-07-12T17:05:17.298Z,80.30
2018-07-12T17:07:46.173Z,80.10
2018-07-12T17:10:14.890Z,80.20
2018-07-12T17:12:43.742Z,80.20
2018-07-12T17:15:12.516Z,80.40
2018-07-12T17:20:09.758Z,80.70
2018-07-12T17:22:38.485Z,80.70
2018-07-12T17:25:07.274Z,81.00
2018-07-12T17:27:36.014Z,81.00
2018-07-12T17:30:04.868Z,80.90
2018-07-12T17:32:33.942Z,80.80
2018-07-12T17:35:02.663Z,80.90
2018-07-12T17:37:31.403Z,80.90
2018-07-12T17:42:28.654Z,81.00
2018-07-12T17:44:57.443Z,80.90
2018-07-12T17:47:26.176Z,81.00
2018-07-12T17:54:51.843Z,81.20
2018-07-12T17:57:20.586Z,81.30
2018-07-12T18:02:17.805Z,81.40
2018-07-12T18:04:46.531Z,81.30
2018-07-12T18:07:15.282Z,81.10
2018-07-12T18:09:44.021Z,81.30
2018-07-12T18:14:41.241Z,81.40
2018-07-12T18:17:10.068Z,81.10
2018-07-12T18:19:38.812Z,80.90
2018-07-12T18:22:07.622Z,81.70
2018-07-12T18:24:36.346Z,80.70
2018-07-12T18:32:02.065Z,81.30
2018-07-12T18:34:30.846Z,81.30
2018-07-12T18:36:59.582Z,81.10
2018-07-12T18:39:28.307Z,81.10
2018-07-12T18:41:57.069Z,81.10
2018-07-12T18:44:25.876Z,81.00
2018-07-12T18:46:54.931Z,81.10
2018-07-12T18:51:52.144Z,80.90
2018-07-12T18:54:20.900Z,80.70
2018-07-12T18:56:49.915Z,80.50
2018-07-12T18:59:19.296Z,80.20
2018-07-12T19:01:48.083Z,80.60
2018-07-12T19:06:45.738Z,82.00
2018-07-12T19:09:14.477Z,82.70
2018-07-12T19:11:43.339Z,82.90
2018-07-12T19:14:12.420Z,83.00
2018-07-12T19:16:41.309Z,83.20
2018-07-12T19:19:10.271Z,83.50
2018-07-12T19:21:39.111Z,83.50
2018-07-12T19:26:37.090Z,82.60
2018-07-12T19:31:34.414Z,82.80
2018-07-12T19:34:03.195Z,82.20
2018-07-12T19:36:32.410Z,82.30
2018-07-12T19:39:01.460Z,82.40
2018-07-12T19:41:30.190Z,82.30
2018-07-12T19:43:58.928Z,82.10
2018-07-12T19:46:27.682Z,81.60
2018-07-12T19:48:56.399Z,81.00
2018-07-12T19:53:53.558Z,80.50
2018-07-12T19:56:22.346Z,80.30
2018-07-12T20:01:19.556Z,80.20
2018-07-12T20:03:48.313Z,80.10
2018-07-12T20:06:17.042Z,80.10
2018-07-12T20:08:45.808Z,80.20
2018-07-12T20:13:42.974Z,80.30
2018-07-12T20:16:11.703Z,80.30
2018-07-12T20:18:40.466Z,80.30
2018-07-12T20:21:09.223Z,80.30
2018-07-12T20:23:37.963Z,80.30
2018-07-12T20:26:06.785Z,81.00
2018-07-12T20:28:35.519Z,80.90
2018-07-12T20:31:04.333Z,80.90
2018-07-12T20:36:01.532Z,81.00
2018-07-12T20:38:30.262Z,81.00
2018-07-12T20:40:59.050Z,81.10
2018-07-12T20:43:27.786Z,81.20
2018-07-12T20:45:56.526Z,81.40
2018-07-12T20:48:25.296Z,81.60
2018-07-12T20:50:54.051Z,81.60
2018-07-12T20:53:22.846Z,81.70
2018-07-12T20:55:51.625Z,81.70
2018-07-12T20:58:20.348Z,81.90
2018-07-12T21:00:49.117Z,82.10
2018-07-12T21:03:17.843Z,82.20
2018-07-12T21:05:46.624Z,82.10
2018-07-12T21:08:15.561Z,82.30
2018-07-12T21:10:44.312Z,82.20
2018-07-12T21:13:13.050Z,82.10
2018-07-12T21:15:41.825Z,82.20
2018-07-12T21:18:10.570Z,82.30
2018-07-12T21:20:39.339Z,82.10
2018-07-12T21:25:36.595Z,82.10
2018-07-12T21:28:05.538Z,81.80
2018-07-12T21:30:34.292Z,81.80
2018-07-12T21:35:31.511Z,81.70
2018-07-12T21:38:00.275Z,82.00
2018-07-12T21:40:29.052Z,82.20
2018-07-12T21:42:57.831Z,82.10
2018-07-12T21:47:55.063Z,81.80
2018-07-12T21:50:23.834Z,81.70
2018-07-12T21:52:52.575Z,81.60
2018-07-12T21:57:49.806Z,81.70
2018-07-12T22:00:18.604Z,81.60
2018-07-12T22:02:47.532Z,81.80
2018-07-12T22:05:16.253Z,82.00
2018-07-12T22:07:55.216Z,82.10
2018-07-12T22:10:23.991Z,82.20
2018-07-12T22:12:53.048Z,82.00
2018-07-12T22:15:21.835Z,82.00
2018-07-12T22:17:50.604Z,82.30
2018-07-12T22:20:19.475Z,82.50
2018-07-12T22:22:48.218Z,82.70
2018-07-12T22:25:16.970Z,82.40
2018-07-12T22:27:45.917Z,82.50
2018-07-12T22:30:14.708Z,82.50
2018-07-12T22:32:43.524Z,82.80
2018-07-12T22:35:12.270Z,83.10
2018-07-12T22:37:41.260Z,83.00
2018-07-12T22:40:10.047Z,82.90
2018-07-12T22:42:38.835Z,82.90
2018-07-12T22:45:07.678Z,83.00
2018-07-12T22:50:05.514Z,84.00
2018-07-12T22:52:34.282Z,83.10
2018-07-12T22:55:03.065Z,83.20
2018-07-12T22:57:31.963Z,83.20
2018-07-12T23:00:00.743Z,83.20
2018-07-12T23:02:29.502Z,83.20
2018-07-12T23:04:58.294Z,83.20
2018-07-12T23:07:27.183Z,83.80
2018-07-12T23:09:56.207Z,82.90
2018-07-12T23:12:25.027Z,82.80
2018-07-12T23:14:53.858Z,82.90
2018-07-12T23:17:22.666Z,83.00
2018-07-12T23:24:49.852Z,83.00
2018-07-12T23:27:18.772Z,83.00
2018-07-12T23:29:47.868Z,83.00
2018-07-12T23:32:16.632Z,83.20
2018-07-12T23:34:45.391Z,83.00
2018-07-12T23:37:14.165Z,82.70
2018-07-12T23:39:42.937Z,82.50
2018-07-12T23:42:11.699Z,83.10
2018-07-12T23:44:40.469Z,83.20
2018-07-12T23:47:09.242Z,83.30
2018-07-12T23:52:06.671Z,83.00
2018-07-12T23:54:35.400Z,82.80
2018-07-12T23:58:07.338Z,82.50
